• pl
  • eng

Awiacja
WIADOMOŚCI
ostatnia aktualizacja: 26.03.2018 14:15
Szanowni Państwo,

uprzejmie informujemy, że od dnia 29 marca br., od godziny 08.30 UTC, IMGW-PIB wprowadza zmianę częstotliwości wydawania prognoz TAF FT dla lotnisk EPWA, EPKK i EPWR. Od tego terminu prognozy będą publikowane co 3 godziny. Okres ich ważności nie ulega zmianie.

TAF FT 13:30 23.04.2018
  • WIND
  • SIGNIFICANT EURO
  • SIGNIFICANT
  • SIGMET
  • AIRMET
  • TAF FC
  • TAF FT
  • METAR GG30
  • METAR GG00


TAF EPBY 231130Z 2312/2412 20010KT CAVOK
TEMPO 2312/2320 4000 SHRA BKN020CB
BECMG 2313/2315 29012KT
PROB40 TEMPO 2314/2318 VRB18G30KT 2000 TSRA BKN005 BKN012CB=

TAF EPGD 231130Z 2312/2412 16010KT CAVOK
TEMPO 2312/2320 4000 SHRA BKN020CB
PROB40 TEMPO 2314/2318 VRB18G30KT 2000 TSRA BKN012CB
BECMG 2315/2317 27010KT=

TAF EPKK 231130Z 2312/2412 06005KT CAVOK
TEMPO 2312/2315 SCT050CB
BECMG 2313/2315 25010KT
TEMPO 2315/2322 VRB18G32KT 3000 TSRA SCT014 BKN030CB
BECMG 2322/2401 31006KT BKN013
BECMG 2407/2409 SCT033=

TAF EPKT 231130Z 2312/2412 19007KT CAVOK
TEMPO 2312/2314 BKN050CB
BECMG 2312/2314 27010KT
TEMPO 2314/2319 VRB20G36KT 3000 TSRA BKN030CB
TEMPO 2318/2321 BKN020CB
BECMG 2321/2324 33005KT BKN012
BECMG 2407/2409 SCT033=

TAF EPLL 231130Z 2312/2412 16008KT CAVOK
TEMPO 2314/2323 -SHRA BKN030CB
PROB40 TEMPO 2315/2321 VRB15G28KT 3000 TSRA BKN015CB
BECMG 2321/2323 28010KT=

TAF EPMO 231130Z 2312/2412 17008KT CAVOK
PROB30 TEMPO 2317/2322 VRB15G28KT 3000 TSRA BKN015CB
BECMG 2321/2323 28010KT=

TAF EPPO 231130Z 2312/2412 25010KT CAVOK
TEMPO 2312/2321 BKN035CB
PROB40 TEMPO 2312/2318 27018G30KT 2500 TSRA BKN014CB
PROB30 2402/2405 VRB02KT 1400 BR=

TAF EPRZ 231130Z 2312/2412 18008KT CAVOK
TEMPO 2312/2317 BKN040CB
TEMPO 2317/2323 VRB26G30KT 3000 TSRA BKN030CB
BECMG 2320/2323 26012KT
TEMPO 2323/2401 BKN030CB
BECMG 2401/2403 BKN012
BECMG 2407/2409 BKN033=

TAF EPSC 231130Z 2312/2412 27012KT CAVOK
TEMPO 2312/2318 28018G30KT SHRA BKN020CB
PROB30 TEMPO 2312/2316 4000 TSRA
TEMPO 2408/2412 26018G32KT=

TAF EPWA 231130Z 2312/2412 15008KT CAVOK
TEMPO 2315/2323 -SHRA BKN030CB
PROB40 TEMPO 2316/2322 VRB15G28KT 3000 TSRA BKN015CB
BECMG 2321/2323 28010KT=

TAF EPWR 231130Z 2312/2412 25006KT CAVOK
TEMPO 2312/2322 BKN035CB
PROB40 TEMPO 2312/2318 27018G30KT 3000 TSRA BKN014CB
PROB40 2402/2405 VRB02KT 1400 BR=
Awiacja.imgw.pl jest pogodowym serwisem informacyjnym
Instytutu Meteorologii i Gospodarki Wodnej Państwowego Instytutu Badawczego.
Copyright IMGW PIB 2009-2011© Wszelkie prawa zastrzeżone.